Aeroporto :
LOGIN :

Iscrizione | Disclaimer

   EN    FR    IT 

 










Sommario :    VFR   VFR Marginale   IFR   IFR Intensivo   IFR Molto Intensivo
Visibilità : 
Base nubi : 
>= 8 km
>= 3000ft
5 / 8 km
1000 / 3000 ft
1500m / 5 km
500 / 1000 ft
800 / 1500m
200 / 500 ft
< 800m
< 200 ft
Simboli :   Temporali  Nebbia  Neve Forte  Precipitazioni Forti  Vento > 20 kt
SIGMETs :   Varie  Temporali  Ghiacco  Turbolenza  Onda orograficha  Ceneri Vulcaniche






- Altitudine del aeroporto : 458 ft


LFSI - St-Dizier

ULTIMO METAR :
  • 221630Z AUTO 23010KT 9999 BKN034 BKN040 OVC120 12/03 Q1027

METARs OBSOLETI :
  • 221600Z AUTO 23011KT 9999 OVC035 12/03 Q1027
  • 221530Z AUTO 24009KT 9999 FEW037 BKN120 BKN160 12/03 Q1028
  • 221500Z AUTO 23009KT CAVOK 12/03 Q1027
  • 221430Z AUTO 23009KT 190V260 CAVOK 12/02 Q1027
  • 221400Z AUTO 22013KT 190V250 CAVOK 12/02 Q1027

TAF TAF LFSI
Valido dal 22 a 15 ore il 23 a 15 ore UTC


221400Z 2215/2315 21015KT 9999 BKN025
BECMG 2220/2222 4000 RA SCT005 BKN013
BECMG 2303/2305 8000 NSW
BECMG 2310/2312 22020G30KT



MetMap, La meteo Aeronautica in un colpo d'occhio ! - Copyright ORBIFLY Dicembre 2007 - Disclaimer

ORBIFLY MET'MAP TEAM :

Programmazione e sviluppo : Alexandra Zaïnal
Concezione : Baudouin d'Aumeries
Aiuto per la programmazione : Marc-Olivier Méhu
Supporto tecnico e logistico : Manuel Goepfert
Aiuto per la traduzione : Arnaldo La Scala

Contatto : metmap@orbifly.com




FONTI E CREDITI :

   NOAA